Time;durP1;ratioP1;P1;durP2;ratioP2;P2;SDS_P1;SDS_P2;PMS_P1;PMS_P2;Temp;Humidity;BMP_temperature;BMP_pressure;BME280_temperature;BME280_humidity;BME280_pressure;Samples;Min_cycle;Max_cycle;Signal;HPM_P1;HPM_P2
2023/01/19 00:01:41;;;;;;;49.00;26.93;;;-2.00;99.90;;;-3.54;100.00;96278.16;5070935;28;20463;-75
2023/01/19 00:04:07;;;;;;;50.90;26.35;;;-2.00;99.90;;;-3.53;100.00;96282.31;5070651;28;20877;-75
2023/01/19 00:06:32;;;;;;;48.33;27.03;;;-2.00;99.90;;;-3.49;100.00;96276.75;5070473;28;20532;-75
2023/01/19 00:08:58;;;;;;;49.38;26.70;;;-2.00;99.90;;;-3.49;100.00;96281.94;5070701;28;20407;-75
2023/01/19 00:11:24;;;;;;;46.93;27.00;;;-2.00;99.90;;;-3.46;100.00;96286.75;5070768;28;20400;-75
2023/01/19 00:13:52;;;;;;;52.70;26.83;;;-2.00;99.90;;;-3.49;100.00;96285.31;5070600;28;20400;-75
2023/01/19 00:16:21;;;;;;;47.53;26.33;;;-2.00;99.90;;;-3.51;100.00;96289.88;5070499;28;20402;-75
2023/01/19 00:18:49;;;;;;;53.20;27.55;;;-2.00;99.90;;;-3.43;100.00;96289.72;5070623;28;20400;-75
2023/01/19 00:21:15;;;;;;;45.15;25.35;;;-1.90;99.90;;;-3.45;100.00;96283.13;5070397;28;20896;-75
2023/01/19 00:23:42;;;;;;;51.20;27.53;;;-1.90;99.90;;;-3.43;100.00;96283.75;5070505;28;20403;-75
2023/01/19 00:26:09;;;;;;;46.38;25.65;;;-1.90;99.90;;;-3.47;100.00;96279.97;5070396;28;20455;-76
2023/01/19 00:28:35;;;;;;;49.08;28.25;;;-2.00;99.90;;;-3.44;100.00;96284.75;5070585;28;20399;-75
2023/01/19 00:31:03;;;;;;;50.40;28.05;;;-1.90;99.90;;;-3.40;100.00;96284.19;5070584;28;21030;-76
2023/01/19 00:33:28;;;;;;;49.43;27.43;;;-1.90;99.90;;;-3.31;100.00;96280.47;5070214;28;20402;-75
2023/01/19 00:35:55;;;;;;;45.20;27.02;;;-1.90;99.90;;;-3.37;100.00;96285.56;5070063;28;20400;-76
2023/01/19 00:38:21;;;;;;;48.42;28.08;;;-1.90;99.90;;;-3.30;100.00;96289.00;5070412;28;20402;-76
2023/01/19 00:40:47;;;;;;;44.55;26.40;;;-1.90;99.90;;;-3.22;100.00;96279.28;5070428;28;20453;-76
2023/01/19 00:43:13;;;;;;;45.70;26.90;;;-1.80;99.90;;;-3.25;100.00;96282.28;5070191;28;20395;-76
2023/01/19 00:45:39;;;;;;;42.23;25.93;;;-1.80;99.90;;;-3.32;100.00;96276.28;5069940;28;21029;-76
2023/01/19 00:48:07;;;;;;;45.75;26.75;;;-1.80;99.90;;;-3.30;100.00;96287.22;5069944;28;20412;-76
2023/01/19 00:50:34;;;;;;;47.25;26.25;;;-1.80;99.90;;;-3.34;100.00;96286.00;5070230;28;20419;-76
2023/01/19 00:53:00;;;;;;;46.58;27.27;;;-1.80;99.90;;;-3.27;100.00;96280.84;5052191;28;20424;-76
2023/01/19 00:55:29;;;;;;;48.35;28.45;;;-1.80;99.90;;;-3.30;100.00;96296.75;5070156;28;20404;-76
2023/01/19 00:57:55;;;;;;;44.87;26.93;;;-1.80;99.90;;;-3.31;100.00;96292.59;5070191;28;20885;-76
2023/01/19 01:00:22;;;;;;;42.33;26.80;;;-1.90;99.90;;;-3.33;100.00;96295.38;5070130;28;20496;-76
2023/01/19 01:02:51;;;;;;;43.90;26.52;;;-1.90;99.90;;;-3.38;100.00;96291.75;5070176;28;20399;-76
2023/01/19 01:05:19;;;;;;;42.25;26.75;;;-1.90;99.90;;;-3.38;100.00;96295.13;5070132;28;20446;-76
2023/01/19 01:07:48;;;;;;;45.30;25.77;;;-1.90;99.90;;;-3.38;100.00;96300.28;5070035;28;20925;-76
2023/01/19 01:10:17;;;;;;;45.58;25.88;;;-1.90;99.90;;;-3.41;100.00;96297.31;5070097;28;20387;-76
2023/01/19 01:12:43;;;;;;;42.35;23.88;;;-1.90;99.90;;;-3.42;100.00;96291.34;5052095;28;20419;-75
2023/01/19 01:15:11;;;;;;;43.35;26.02;;;-1.90;99.90;;;-3.41;100.00;96302.47;5069892;28;20400;-75
2023/01/19 01:17:45;;;;;;;42.83;25.50;;;-1.90;99.90;;;-3.45;100.00;96290.91;5069740;28;20915;-76
2023/01/19 01:20:15;;;;;;;45.28;25.20;;;-1.90;99.90;;;-3.45;100.00;96296.06;5070200;28;20432;-76
2023/01/19 01:22:44;;;;;;;40.25;24.30;;;-2.00;99.90;;;-3.48;100.00;96293.88;5069912;28;20388;-76
2023/01/19 01:25:11;;;;;;;41.38;23.80;;;-2.00;99.90;;;-3.51;100.00;96300.22;5069732;28;20461;-76
2023/01/19 01:27:37;;;;;;;38.47;23.85;;;-2.00;99.90;;;-3.44;100.00;96308.03;5069678;28;20415;-76
2023/01/19 01:30:04;;;;;;;40.67;24.02;;;-2.00;99.90;;;-3.52;100.00;96302.00;5069848;28;20396;-76
2023/01/19 01:32:30;;;;;;;37.88;22.45;;;-2.00;99.90;;;-3.52;100.00;96307.19;5069833;28;20434;-76
2023/01/19 01:34:56;;;;;;;38.17;22.20;;;-2.10;99.90;;;-3.53;100.00;96309.94;5069601;28;20483;-76
2023/01/19 01:37:22;;;;;;;37.35;23.20;;;-2.00;99.90;;;-3.53;100.00;96310.75;5069585;28;20402;-75
2023/01/19 01:39:49;;;;;;;37.40;22.75;;;-2.00;99.90;;;-3.47;100.00;96306.63;5069765;28;20411;-75
2023/01/19 01:42:19;;;;;;;35.70;22.13;;;-2.00;99.90;;;-3.46;100.00;96308.22;5051680;28;20896;-75
2023/01/19 01:44:50;;;;;;;37.05;22.23;;;-2.00;99.90;;;-3.42;100.00;96316.41;5069214;28;20411;-75
2023/01/19 01:47:22;;;;;;;37.45;22.60;;;-2.00;99.90;;;-3.47;100.00;96306.63;5069462;28;20470;-76
2023/01/19 01:49:52;;;;;;;36.28;21.30;;;-2.00;99.90;;;-3.47;100.00;96306.63;5069796;28;20919;-76
2023/01/19 01:52:21;;;;;;;41.17;22.58;;;-2.00;99.90;;;-3.34;100.00;96311.06;5069528;28;20400;-75
2023/01/19 01:54:47;;;;;;;37.00;20.80;;;-1.90;99.90;;;-3.33;100.00;96307.50;5069582;28;20404;-76
2023/01/19 01:57:14;;;;;;;35.75;21.42;;;-1.90;99.90;;;-3.40;100.00;96309.25;5069377;28;20417;-76
2023/01/19 01:59:44;;;;;;;39.63;21.83;;;-1.90;99.90;;;-3.40;100.00;96309.25;5069440;28;20396;-76
2023/01/19 02:05:05;;;;;;;40.00;22.13;;;-1.90;99.90;;;-3.37;100.00;96316.63;5073048;28;20426;-77
2023/01/19 02:13:19;;;;;;;34.20;21.23;;;-1.90;99.90;;;-3.38;100.00;96302.88;5073009;28;20450;-76
2023/01/19 02:15:46;;;;;;;37.42;21.83;;;-1.90;99.90;;;-3.39;100.00;96308.28;5072650;28;20451;-76
2023/01/19 02:18:13;;;;;;;37.80;22.27;;;-1.90;99.90;;;-3.35;100.00;96305.09;5072955;28;20391;-76
2023/01/19 02:20:46;;;;;;;40.78;22.73;;;-1.90;99.90;;;-3.41;100.00;96305.06;5072833;28;20399;-76
2023/01/19 02:23:19;;;;;;;38.55;22.30;;;-1.90;99.90;;;-3.38;100.00;96297.72;5072837;28;20405;-76
2023/01/19 02:25:48;;;;;;;35.47;22.17;;;-1.90;99.90;;;-3.39;100.00;96305.69;5072587;28;20406;-76
2023/01/19 02:28:14;;;;;;;36.25;21.48;;;-1.90;99.90;;;-3.36;100.00;96297.53;5072519;28;20412;-76
2023/01/19 02:30:41;;;;;;;39.95;22.85;;;-1.90;99.90;;;-3.36;100.00;96292.34;5072564;28;20431;-76
2023/01/19 02:33:07;;;;;;;38.25;21.90;;;-1.90;99.90;;;-3.35;100.00;96287.00;5072532;28;20400;-75
2023/01/19 02:35:36;;;;;;;35.58;21.63;;;-1.90;99.90;;;-3.40;100.00;96288.56;5072380;28;20410;-75
2023/01/19 02:38:04;;;;;;;36.22;21.65;;;-1.90;99.90;;;-3.42;100.00;96298.28;5072470;28;20403;-76
2023/01/19 02:40:30;;;;;;;33.42;20.73;;;-1.90;99.90;;;-3.47;100.00;96296.28;5072557;28;20399;-76
2023/01/19 02:42:59;;;;;;;34.25;21.95;;;-2.00;99.90;;;-3.49;100.00;96302.63;5072310;28;20903;-76
2023/01/19 02:45:26;;;;;;;34.60;22.38;;;-2.00;99.90;;;-3.48;100.00;96309.41;5072084;28;20432;-76
2023/01/19 02:47:52;;;;;;;34.13;20.40;;;-2.00;99.90;;;-3.50;100.00;96309.59;5072180;28;20408;-76
2023/01/19 02:50:43;;;;;;;36.92;21.35;;;-2.00;99.90;;;-3.53;100.00;96309.94;5072176;28;20399;-76
2023/01/19 02:53:31;;;;;;;31.20;20.73;;;-2.10;99.90;;;-3.53;100.00;96308.16;5072163;28;20396;-75
2023/01/19 02:56:05;;;;;;;34.78;20.90;;;-2.00;99.90;;;-3.47;100.00;96305.81;5053758;28;20410;-75
2023/01/19 02:58:45;;;;;;;32.75;20.00;;;-2.00;99.90;;;-3.48;100.00;96312.78;5072159;28;20416;-76
2023/01/19 03:01:22;;;;;;;33.40;19.13;;;-2.10;99.90;;;-3.43;100.00;96314.78;5072127;28;20396;-76
2023/01/19 03:03:57;;;;;;;30.60;20.05;;;-2.00;99.90;;;-3.46;100.00;96307.44;5071989;28;20399;-76
2023/01/19 03:06:36;;;;;;;30.52;19.48;;;-2.00;99.90;;;-3.48;100.00;96311.97;5071648;28;20976;-75
2023/01/19 03:09:10;;;;;;;34.60;20.30;;;-2.00;99.90;;;-3.49;100.00;96310.38;5071956;28;20402;-76
2023/01/19 03:11:43;;;;;;;29.75;19.35;;;-2.00;99.90;;;-3.48;100.00;96311.97;5071763;28;20399;-75
2023/01/19 03:14:14;;;;;;;29.95;19.35;;;-2.00;99.90;;;-3.46;100.00;96315.19;5071421;28;20609;-76
2023/01/19 03:16:44;;;;;;;30.63;19.38;;;-2.10;99.90;;;-3.47;100.00;96305.81;5071548;28;20402;-76
2023/01/19 03:19:19;;;;;;;28.67;19.00;;;-2.00;99.90;;;-3.40;100.00;96312.66;5071678;28;20473;-76
2023/01/19 03:21:48;;;;;;;30.50;18.65;;;-2.00;99.90;;;-3.40;100.00;96307.47;5071686;28;20393;-76
2023/01/19 03:24:18;;;;;;;32.72;18.05;;;-1.90;99.90;;;-3.53;100.00;96303.00;5071202;28;20415;-76
2023/01/19 03:26:51;;;;;;;30.00;18.90;;;-2.00;99.90;;;-3.53;100.00;96303.00;5071271;28;20426;-76
2023/01/19 03:29:21;;;;;;;33.30;19.13;;;-2.10;99.90;;;-3.51;100.00;96305.41;5071582;28;20400;-76
2023/01/19 03:31:49;;;;;;;30.58;18.17;;;-2.10;99.90;;;-3.54;100.00;96306.59;5071453;28;20395;-76
2023/01/19 03:34:20;;;;;;;32.35;18.15;;;-2.10;99.90;;;-3.54;100.00;96311.75;5071188;28;20404;-76
2023/01/19 03:36:52;;;;;;;31.35;18.40;;;-2.00;99.90;;;-3.58;100.00;96315.69;5071237;28;20399;-76
2023/01/19 03:39:22;;;;;;;27.10;17.30;;;-2.10;99.90;;;-3.62;100.00;96317.09;5071242;28;20426;-76
2023/01/19 03:41:51;;;;;;;29.90;18.33;;;-2.20;99.90;;;-3.64;100.00;96306.13;5071213;28;20396;-76
2023/01/19 03:44:19;;;;;;;29.10;17.77;;;-2.10;99.90;;;-3.57;100.00;96313.91;5069985;28;20518;-76
2023/01/19 03:46:46;;;;;;;29.27;18.35;;;-2.10;99.90;;;-3.57;100.00;96306.16;5070582;28;20416;-76
2023/01/19 03:49:13;;;;;;;28.77;17.42;;;-2.10;99.90;;;-3.62;100.00;96304.16;5062988;28;20399;-76
2023/01/19 03:51:39;;;;;;;27.63;17.52;;;-2.10;99.90;;;-3.67;100.00;96316.81;5070803;28;20572;-76
2023/01/19 03:54:06;;;;;;;28.65;17.65;;;-2.20;99.90;;;-3.69;100.00;96318.03;5070526;28;20415;-76
2023/01/19 03:56:32;;;;;;;29.98;18.25;;;-2.20;99.90;;;-3.71;100.00;96315.63;5070484;28;20407;-76
2023/01/19 03:58:58;;;;;;;31.33;19.05;;;-2.20;99.90;;;-3.73;100.00;96319.38;5070652;28;20392;-76
2023/01/19 04:01:26;;;;;;;30.63;17.75;;;-2.20;99.90;;;-3.64;100.00;96316.47;5070797;28;20494;-76
2023/01/19 04:03:52;;;;;;;34.30;18.08;;;-2.20;99.90;;;-3.61;100.00;96320.47;5070730;28;20801;-76
2023/01/19 04:06:19;;;;;;;29.35;17.80;;;-2.20;99.90;;;-3.57;100.00;96322.47;5070329;28;20942;-76
2023/01/19 04:08:48;;;;;;;28.02;17.50;;;-2.10;99.90;;;-3.52;100.00;96319.31;5070657;28;20404;-76
2023/01/19 04:11:14;;;;;;;28.67;18.23;;;-2.10;99.90;;;-3.50;100.00;96330.28;5070606;28;20454;-76
2023/01/19 04:13:40;;;;;;;32.93;17.80;;;-2.00;99.90;;;-3.55;100.00;96333.44;5052611;28;20400;-76
2023/01/19 04:16:08;;;;;;;26.70;16.30;;;-2.10;99.90;;;-3.60;100.00;96333.19;5070440;28;20541;-76
2023/01/19 04:18:35;;;;;;;29.60;16.40;;;-2.10;99.90;;;-3.59;100.00;96334.78;5070682;28;20478;-76
2023/01/19 04:21:04;;;;;;;29.27;17.90;;;-2.20;99.90;;;-3.61;100.00;96333.41;5070511;28;20512;-76
2023/01/19 04:23:30;;;;;;;27.45;16.70;;;-2.20;99.90;;;-3.63;100.00;96330.19;5069857;28;20404;-76
2023/01/19 04:25:57;;;;;;;26.45;16.55;;;-2.20;99.90;;;-3.67;100.00;96341.88;5070407;28;20415;-77
2023/01/19 04:28:24;;;;;;;27.38;17.63;;;-2.20;99.90;;;-3.69;100.00;96336.13;5070381;28;20419;-76
2023/01/19 04:30:51;;;;;;;27.67;16.98;;;-2.20;99.90;;;-3.67;100.00;96340.09;5052523;28;20920;-76
2023/01/19 04:33:17;;;;;;;25.85;16.38;;;-2.30;99.90;;;-3.74;100.00;96338.44;5070296;28;20400;-76
2023/01/19 04:35:44;;;;;;;28.53;17.87;;;-2.30;99.90;;;-3.67;100.00;96347.06;5052158;28;21014;-76
2023/01/19 04:38:10;;;;;;;28.50;17.85;;;-2.20;99.90;;;-3.64;100.00;96334.56;5070342;28;20431;-76
2023/01/19 04:40:36;;;;;;;25.98;16.75;;;-2.10;99.90;;;-3.76;100.00;96335.28;5070393;28;20495;-76
2023/01/19 04:43:02;;;;;;;28.60;16.42;;;-2.30;99.90;;;-3.75;100.00;96339.44;5070150;28;20502;-76
2023/01/19 04:45:28;;;;;;;26.30;16.67;;;-2.30;99.90;;;-3.82;100.00;96341.97;5070167;28;20439;-77
2023/01/19 04:47:54;;;;;;;27.30;16.83;;;-2.30;99.90;;;-3.75;100.00;96349.78;5070069;28;20426;-76
2023/01/19 04:50:20;;;;;;;27.75;16.90;;;-2.30;99.90;;;-3.80;100.00;96340.00;5069820;28;20896;-77
2023/01/19 04:52:47;;;;;;;27.83;17.77;;;-2.30;99.90;;;-3.82;100.00;96346.34;5064066;28;20408;-76
2023/01/19 04:55:14;;;;;;;27.27;16.20;;;-2.30;99.90;;;-3.86;100.00;96345.13;5078915;28;20398;-76
2023/01/19 04:57:40;;;;;;;27.90;17.65;;;-2.40;99.90;;;-3.84;100.00;96343.16;5073435;28;20402;-76
2023/01/19 05:00:08;;;;;;;31.63;18.80;;;-2.40;99.90;;;-3.78;100.00;96350.16;5069899;28;20406;-76
2023/01/19 05:02:34;;;;;;;28.60;17.98;;;-2.30;99.90;;;-3.74;100.00;96344.41;5067965;28;20461;-76
2023/01/19 05:05:00;;;;;;;33.75;18.85;;;-2.30;99.90;;;-3.65;100.00;96348.47;5074423;28;20400;-75
2023/01/19 05:07:27;;;;;;;27.40;17.80;;;-2.20;99.90;;;-3.68;100.00;96350.63;5063605;28;20416;-76
2023/01/19 05:09:54;;;;;;;29.08;18.33;;;-2.20;99.90;;;-3.52;100.00;96352.94;5071988;28;20872;-77
2023/01/19 05:12:20;;;;;;;29.58;17.48;;;-2.20;99.90;;;-3.60;100.00;96348.69;5070274;28;20403;-76
2023/01/19 05:14:46;;;;;;;28.95;18.48;;;-2.10;99.90;;;-3.65;100.00;96352.84;5066297;28;20400;-76
2023/01/19 05:17:12;;;;;;;31.30;18.35;;;-2.20;99.90;;;-3.68;100.00;96351.41;5068970;28;20402;-76
2023/01/19 05:19:38;;;;;;;27.50;17.42;;;-2.20;99.90;;;-3.65;100.00;96352.84;5069332;28;20893;-76
2023/01/19 05:22:05;;;;;;;28.40;17.95;;;-2.20;99.90;;;-3.66;100.00;96349.47;5069145;28;20403;-76
2023/01/19 05:24:31;;;;;;;28.13;18.30;;;-2.20;99.90;;;-3.66;100.00;96357.22;5069319;28;20837;-75
2023/01/19 05:26:58;;;;;;;28.93;18.37;;;-2.20;99.90;;;-3.62;100.00;96368.81;5069118;28;20407;-76
2023/01/19 05:29:24;;;;;;;33.60;19.27;;;-2.10;99.90;;;-3.65;100.00;96363.19;5069256;28;20411;-76
2023/01/19 05:31:50;;;;;;;27.50;18.27;;;-2.20;99.90;;;-3.65;100.00;96361.41;5069250;28;20972;-76
2023/01/19 05:34:17;;;;;;;29.30;17.47;;;-2.20;99.90;;;-3.70;100.00;96362.97;5064187;28;20460;-76
2023/01/19 05:36:43;;;;;;;30.85;18.80;;;-2.20;99.90;;;-3.71;100.00;96363.94;5078682;28;20396;-77
2023/01/19 05:39:09;;;;;;;30.20;18.73;;;-2.20;99.90;;;-3.72;100.00;96368.31;5073484;28;20491;-77
2023/01/19 05:41:35;;;;;;;27.35;18.35;;;-2.30;99.90;;;-3.65;100.00;96369.16;5073643;28;20784;-83
2023/01/19 05:44:03;;;;;;;31.77;19.40;;;-2.20;99.90;;;-3.68;100.00;96369.53;5073902;28;20461;-84
2023/01/19 05:46:29;;;;;;;31.15;19.02;;;-2.20;99.90;;;-3.69;100.00;96373.13;5073555;28;20490;-82
2023/01/19 05:48:55;;;;;;;34.13;20.17;;;-2.20;99.90;;;-3.69;100.00;96378.28;5073622;28;20845;-78
2023/01/19 05:51:20;;;;;;;28.90;18.10;;;-2.20;99.90;;;-3.69;100.00;96375.72;5073340;28;20396;-78
2023/01/19 05:53:46;;;;;;;32.22;19.52;;;-2.20;99.90;;;-3.62;100.00;96389.50;5072495;28;20406;-78
2023/01/19 05:56:12;;;;;;;33.43;20.17;;;-2.20;99.90;;;-3.54;100.00;96388.56;5082242;22;20423;-76
2023/01/19 05:58:38;;;;;;;31.13;19.13;;;-2.10;99.90;;;-3.61;100.00;96387.69;5051695;28;20398;-77
2023/01/19 06:01:09;;;;;;;31.30;19.48;;;-2.10;99.90;;;-3.69;100.00;96393.81;5041125;28;20422;-75
2023/01/19 06:03:36;;;;;;;30.45;19.48;;;-2.20;99.90;;;-3.67;100.00;96391.81;5033066;28;20494;-77
2023/01/19 06:06:02;;;;;;;30.80;19.30;;;-2.20;99.90;;;-3.68;100.00;96386.81;5032875;28;20833;-75
2023/01/19 06:08:29;;;;;;;32.03;19.07;;;-2.20;99.90;;;-3.73;100.00;96387.41;5033154;28;20422;-77
2023/01/19 06:10:55;;;;;;;29.35;19.17;;;-2.20;99.90;;;-3.75;100.00;96396.31;5033273;28;20399;-77
2023/01/19 06:13:21;;;;;;;31.85;19.90;;;-2.30;99.90;;;-3.70;100.00;96399.16;5015407;28;20447;-77
2023/01/19 06:15:47;;;;;;;37.95;20.75;;;-2.20;99.90;;;-3.67;100.00;96398.78;5015057;28;20434;-77
2023/01/19 06:18:14;;;;;;;32.55;20.38;;;-2.20;99.90;;;-3.70;100.00;96409.50;5033088;28;20811;-77
2023/01/19 06:20:40;;;;;;;33.33;20.05;;;-2.20;99.90;;;-3.67;100.00;96403.94;5033054;28;20803;-77
2023/01/19 06:23:06;;;;;;;30.98;19.30;;;-2.20;99.90;;;-3.59;100.00;96409.78;5032988;28;20494;-77
2023/01/19 06:25:32;;;;;;;30.85;18.52;;;-2.20;99.90;;;-3.68;100.00;96402.34;5032992;28;20757;-76
2023/01/19 06:27:58;;;;;;;34.60;20.17;;;-2.20;99.90;;;-3.69;100.00;96406.75;5032771;28;20414;-76
2023/01/19 06:30:24;;;;;;;28.95;18.60;;;-2.20;99.90;;;-3.66;100.00;96405.53;5032846;28;20942;-76
2023/01/19 06:32:50;;;;;;;27.60;18.60;;;-2.20;99.90;;;-3.66;100.00;96410.72;5032930;28;20430;-76
2023/01/19 06:35:17;;;;;;;29.25;18.83;;;-2.20;99.90;;;-3.67;100.00;96412.50;5032616;28;20560;-76
2023/01/19 06:37:43;;;;;;;30.73;19.08;;;-2.20;99.90;;;-3.73;100.00;96418.41;5031607;28;20417;-76
2023/01/19 06:40:11;;;;;;;28.10;18.13;;;-2.20;99.90;;;-3.66;100.00;96427.03;5052079;28;20480;-76
2023/01/19 06:42:36;;;;;;;32.45;19.90;;;-2.20;99.90;;;-3.70;100.00;96419.84;5019176;28;20397;-76
2023/01/19 06:45:03;;;;;;;28.50;18.07;;;-2.20;99.90;;;-3.70;100.00;96419.84;5032350;28;20426;-76
2023/01/19 06:47:29;;;;;;;34.50;19.65;;;-2.20;99.90;;;-3.71;100.00;96423.41;5031855;28;20935;-76
2023/01/19 06:49:55;;;;;;;32.03;19.67;;;-2.20;99.90;;;-3.71;100.00;96426.00;5014838;28;20418;-77
2023/01/19 06:52:22;;;;;;;31.88;19.88;;;-2.20;99.90;;;-3.70;100.00;96418.06;5032499;28;20419;-75
2023/01/19 06:54:48;;;;;;;30.45;19.48;;;-2.20;99.90;;;-3.74;100.00;96424.56;5032276;28;20403;-77
2023/01/19 06:57:14;;;;;;;30.67;19.87;;;-2.20;99.90;;;-3.74;100.00;96421.97;5032096;28;20414;-76
2023/01/19 06:59:40;;;;;;;32.22;19.52;;;-2.20;99.90;;;-3.73;100.00;96427.97;5032415;28;20407;-77
2023/01/19 07:02:06;;;;;;;31.15;19.20;;;-2.20;99.90;;;-3.64;100.00;96424.28;5032259;28;20506;-77
2023/01/19 07:04:32;;;;;;;26.77;17.70;;;-2.20;99.90;;;-3.75;100.00;96435.09;5032082;28;20768;-77
2023/01/19 07:06:58;;;;;;;30.35;18.77;;;-2.20;99.90;;;-3.75;100.00;96432.50;5031979;28;20757;-76
2023/01/19 07:09:26;;;;;;;24.75;16.95;;;-2.30;99.90;;;-3.82;100.00;96435.03;5031972;28;20414;-76
2023/01/19 07:11:53;;;;;;;26.40;17.55;;;-2.30;99.90;;;-3.82;100.00;96435.03;5014347;28;20407;-76
2023/01/19 07:14:19;;;;;;;27.67;18.23;;;-2.30;99.90;;;-3.83;100.00;96443.00;5031816;28;20399;-76
2023/01/19 07:16:46;;;;;;;27.50;17.42;;;-2.30;99.90;;;-3.83;100.00;96430.06;5031630;28;20411;-76
2023/01/19 07:19:13;;;;;;;28.65;18.17;;;-2.30;99.90;;;-3.84;100.00;96433.63;5031990;28;20991;-76
2023/01/19 07:21:39;;;;;;;25.60;16.92;;;-2.30;99.90;;;-3.84;100.00;96431.84;5036339;28;20434;-76
2023/01/19 07:24:05;;;;;;;29.48;18.88;;;-2.30;99.90;;;-3.80;100.00;96438.25;5031669;28;20875;-76
2023/01/19 07:26:32;;;;;;;29.38;17.80;;;-2.30;99.90;;;-3.79;100.00;96432.09;5031343;28;20951;-76
2023/01/19 07:28:58;;;;;;;26.85;16.70;;;-2.30;99.90;;;-3.79;100.00;96437.25;5031794;28;20407;-76
2023/01/19 07:31:24;;;;;;;27.83;18.13;;;-2.20;99.90;;;-3.77;100.00;96432.72;5031833;28;20418;-76
2023/01/19 07:33:50;;;;;;;30.95;17.83;;;-2.30;99.90;;;-3.77;100.00;96437.09;5031603;28;20489;-76
2023/01/19 07:36:16;;;;;;;30.00;17.80;;;-2.30;99.90;;;-3.76;100.00;96434.28;5031617;28;20507;-77
2023/01/19 07:38:42;;;;;;;24.07;16.27;;;-2.20;99.90;;;-3.78;100.00;96436.28;5031700;28;20403;-76
2023/01/19 07:41:09;;;;;;;25.55;17.25;;;-2.30;99.90;;;-3.77;100.00;96432.72;5031685;28;20410;-76
2023/01/19 07:43:36;;;;;;;22.63;15.73;;;-2.30;99.90;;;-3.76;100.00;96433.53;5031552;28;20399;-76
2023/01/19 07:46:04;;;;;;;27.58;17.80;;;-2.20;99.90;;;-3.65;100.00;96435.59;5031394;28;20411;-76
2023/01/19 07:48:30;;;;;;;29.88;17.08;;;-2.20;99.90;;;-3.66;100.00;96442.56;5013572;28;20558;-76
2023/01/19 07:50:59;;;;;;;25.67;16.35;;;-2.20;99.90;;;-3.68;100.00;96441.94;5031506;28;20490;-76
2023/01/19 07:53:25;;;;;;;25.77;16.60;;;-2.10;99.90;;;-3.67;100.00;96451.28;5031328;28;20478;-77
2023/01/19 07:55:55;;;;;;;23.33;14.75;;;-2.20;99.90;;;-3.68;100.00;96447.09;5031278;28;20411;-76
2023/01/19 07:58:21;;;;;;;22.67;14.80;;;-2.20;99.90;;;-3.67;100.00;96450.47;5030709;28;20915;-76
2023/01/19 08:00:49;;;;;;;24.05;15.23;;;-2.20;99.90;;;-3.67;100.00;96445.31;5023522;28;20778;-77
2023/01/19 08:03:16;;;;;;;23.90;15.20;;;-2.20;99.90;;;-3.56;100.00;96450.00;5043028;28;20478;-77
2023/01/19 08:05:42;;;;;;;21.08;14.93;;;-2.10;99.90;;;-3.46;100.00;96457.47;5031563;28;20472;-76
2023/01/19 08:08:10;;;;;;;23.83;15.57;;;-2.00;99.90;;;-3.44;100.00;96448.50;5049123;28;20411;-77
2023/01/19 08:10:36;;;;;;;25.88;14.85;;;-2.00;99.90;;;-3.22;100.00;96455.25;5049786;28;20399;-77
2023/01/19 08:13:02;;;;;;;21.10;14.18;;;-1.90;99.90;;;-3.21;100.00;96461.22;5034241;28;20409;-76
2023/01/19 08:15:28;;;;;;;23.02;14.65;;;-1.80;99.90;;;-3.21;100.00;96456.06;5030870;28;20403;-76
2023/01/19 08:17:57;;;;;;;21.63;13.68;;;-1.70;99.90;;;-3.17;100.00;96462.47;5030948;28;20888;-76
2023/01/19 08:20:23;;;;;;;21.27;13.60;;;-1.70;99.90;;;-3.14;100.00;96464.66;5030956;28;20407;-76
2023/01/19 08:22:49;;;;;;;21.38;13.02;;;-1.70;99.90;;;-3.13;100.00;96463.69;5030842;28;20430;-76
2023/01/19 08:25:15;;;;;;;23.45;14.05;;;-1.70;99.90;;;-3.07;100.00;96467.31;5030645;28;20399;-76
2023/01/19 08:27:41;;;;;;;20.77;13.63;;;-1.60;99.90;;;-2.97;100.00;96470.38;5013019;28;20419;-76
2023/01/19 08:30:09;;;;;;;21.38;13.57;;;-1.60;99.90;;;-2.86;100.00;96478.44;5030738;28;20824;-76
2023/01/19 08:32:35;;;;;;;22.08;13.98;;;-1.50;99.90;;;-2.81;100.00;96470.09;5030448;28;20418;-76
2023/01/19 08:35:03;;;;;;;20.58;12.05;;;-1.40;99.90;;;-2.90;100.00;96468.63;5030368;28;20403;-76
2023/01/19 08:37:29;;;;;;;20.08;12.38;;;-1.50;99.90;;;-3.00;100.00;96466.38;5042842;28;20417;-76
2023/01/19 08:39:55;;;;;;;18.90;12.38;;;-1.60;99.90;;;-2.96;100.00;96471.97;5031270;28;20922;-75
2023/01/19 08:42:21;;;;;;;20.45;13.00;;;-1.50;99.90;;;-2.97;100.00;96483.31;5036961;28;20959;-76
2023/01/19 08:44:47;;;;;;;20.40;12.95;;;-1.50;99.90;;;-2.83;100.00;96483.22;5030271;28;20456;-76
2023/01/19 08:47:13;;;;;;;19.55;12.38;;;-1.40;99.90;;;-2.86;100.00;96482.81;5030442;28;20472;-76
2023/01/19 08:49:39;;;;;;;19.38;11.98;;;-1.40;99.90;;;-2.81;100.00;96483.84;5039322;28;20409;-76
2023/01/19 08:52:06;;;;;;;18.50;12.73;;;-1.40;99.90;;;-2.74;100.00;96486.47;5039004;28;20438;-76
2023/01/19 08:54:32;;;;;;;21.90;12.40;;;-1.40;99.90;;;-2.72;100.00;96475.94;5030464;28;20411;-76
2023/01/19 08:57:00;;;;;;;19.58;11.27;;;-1.30;99.90;;;-2.72;100.00;96471.53;5029337;28;21271;-76
2023/01/19 08:59:26;;;;;;;19.20;12.30;;;-1.30;99.90;;;-2.60;100.00;96485.56;5030437;28;20458;-77
2023/01/19 09:01:52;;;;;;;18.23;11.32;;;-1.20;99.90;;;-2.52;100.00;96479.41;5030427;28;20442;-78
2023/01/19 09:04:18;;;;;;;19.17;11.60;;;-1.10;99.90;;;-2.45;100.00;96482.84;5030414;28;20411;-75
2023/01/19 09:06:44;;;;;;;19.67;12.27;;;-1.10;99.90;;;-2.45;100.00;96486.25;5029951;28;20454;-76
2023/01/19 09:09:11;;;;;;;17.60;11.07;;;-1.10;99.90;;;-2.31;100.00;96494.88;5030635;28;20403;-76
2023/01/19 09:11:37;;;;;;;20.95;12.82;;;-0.90;99.90;;;-2.19;100.00;96492.56;5016697;28;20902;-76
2023/01/19 09:14:04;;;;;;;21.70;12.20;;;-0.80;99.90;;;-2.05;100.00;96489.00;5034335;28;20399;-76
2023/01/19 09:16:30;;;;;;;14.57;10.75;;;-0.70;99.90;;;-1.79;100.00;96499.47;5034247;28;20409;-76
2023/01/19 09:18:57;;;;;;;15.38;10.90;;;-0.50;99.90;;;-1.73;100.00;96493.50;5034360;28;20395;-76
2023/01/19 09:21:23;;;;;;;16.05;10.77;;;-0.40;99.90;;;-1.73;100.00;96503.88;5034161;28;20440;-76
2023/01/19 09:23:49;;;;;;;16.67;10.30;;;-0.30;99.90;;;-1.59;100.00;96507.31;5041031;28;20409;-76
2023/01/19 09:26:16;;;;;;;17.17;10.57;;;-0.20;99.90;;;-1.38;100.00;96501.16;5048899;28;20890;-76
2023/01/19 09:28:42;;;;;;;15.52;10.18;;;-0.10;99.90;;;-1.38;100.00;96503.75;5037610;28;20472;-76
2023/01/19 09:31:08;;;;;;;15.95;11.23;;;0.00;99.90;;;-1.24;100.00;96500.19;5034191;28;20407;-77
2023/01/19 09:33:34;;;;;;;16.70;10.98;;;0.00;99.90;;;-1.00;100.00;96504.00;5033915;28;20418;-75
2023/01/19 09:36:01;;;;;;;15.43;11.35;;;0.30;99.90;;;-0.90;100.00;96497.38;5033893;28;20406;-75
2023/01/19 09:38:30;;;;;;;14.73;10.75;;;0.40;99.90;;;-1.00;100.00;96504.00;5016096;28;20856;-76
2023/01/19 09:40:57;;;;;;;15.67;9.43;;;0.40;99.90;;;-1.05;100.00;96501.19;5033935;28;20405;-75
2023/01/19 09:43:36;;;;;;;14.70;10.35;;;0.30;99.90;;;-1.11;100.00;96501.97;5033737;28;20399;-77
2023/01/19 09:46:05;;;;;;;14.25;9.85;;;0.20;99.90;;;-1.03;100.00;96502.56;5052717;28;20405;-75
2023/01/19 09:48:42;;;;;;;16.27;9.95;;;0.20;99.90;;;-0.98;100.00;96509.78;5053436;28;20873;-75
2023/01/19 09:51:15;;;;;;;15.68;9.63;;;0.20;99.90;;;-1.02;100.00;96495.59;5053770;28;20501;-76
2023/01/19 09:53:58;;;;;;;16.23;9.55;;;0.30;99.90;;;-0.78;100.00;96487.19;5053307;28;20416;-75
2023/01/19 09:56:28;;;;;;;15.40;9.68;;;0.60;99.90;;;-0.39;100.00;96491.53;5046813;28;20462;-74
2023/01/19 09:58:55;;;;;;;13.73;8.37;;;1.00;99.90;;;0.10;100.00;96488.34;5017980;28;20407;-75
2023/01/19 10:01:44;;;;;;;13.15;8.52;;;1.50;99.90;;;0.18;100.00;96500.31;5033644;28;20410;-74
2023/01/19 10:04:30;;;;;;;11.05;8.07;;;1.60;99.90;;;0.10;100.00;96496.16;5033451;28;20399;-75
2023/01/19 10:07:28;;;;;;;13.50;8.55;;;1.50;99.90;;;0.04;100.00;96494.38;5033119;28;20408;-73
2023/01/19 10:10:17;;;;;;;20.23;10.52;;;1.40;99.90;;;-0.46;100.00;96504.53;5033416;28;20822;-74
2023/01/19 10:12:58;;;;;;;13.57;9.02;;;0.90;99.90;;;-0.61;100.00;96500.56;5033320;28;20399;-74